Atwater, MN (56209)

11:03 PM CDT on August 27, 2016 (GMT -0500)
Eagle's Landing | | Change Station

Elev 1155 ft 45.16 °N, 95.04 °W | Updated 8 minutes ago

Fog
Fog
60.1 °F
Feels Like 60.1 °F
N
0.0
Wind Variable Wind from South

Today
High -- | Low -- °F
--% Chance of Precip.
Yesterday
High -- | Low -- °F
Precip. -- in
Pressure 30.07 in
Visibility 0.2 miles
Clouds Overcast 100 ft
Dew Point 58 °F
Humidity 91%
Rainfall 0.04 in
Snow Depth Not available.
6:35 AM 8:04 PM
Waning Crescent, 19% visible
METAR KLJF 280353Z AUTO 00000KT 1/4SM FG OVC001 15/15 A3007 RMK AO2
Pressure 30.07 in
Visibility 0.2 miles
Clouds Overcast 100 ft
Dew Point 58 °F
Humidity 91%
Rainfall 0.04 in
Snow Depth Not available.
6:35 AM 8:04 PM
Waning Crescent, 19% visible
METAR KLJF 280353Z AUTO 00000KT 1/4SM FG OVC001 15/15 A3007 RMK AO2

10-Day Weather Forecast

Almanac

Astronomy

Aug. 27, 2016 Rise Set
Actual Time
Civil Twilight
Nautical Twilight
Astronomical Twilight
Moon
Length of Visible Light
Length of Day
Tomorrow will be .
, % of the Moon is Illuminated

Today's Extremes

State Highs State Lows

Community

WunderPhotos

Upload Photos

1,935,522 photos uploaded!

WunderBlog® & News

Nearby

Air Quality

  Air Quality AQ Index Pollutant
Not available.

Snow Depth

Station Depth Elevation

Earthquake Activity

City Distance Mag. Time & Date
Minimum magnitude displayed is 2.5.

Coastal Water Temperatures

Place Temperature

Stations

Nearby Weather Stations

Station Location Temp. Windchill Dew Point Humidity Wind Precip. Elev Updated Type
                   

Watches & Warnings

There are currently no watches in effect.